createdAt,value
2024-01-07T00:00:32.312Z,38.63
2024-01-07T00:02:58.945Z,38.75
2024-01-07T00:05:25.606Z,38.33
2024-01-07T00:07:52.955Z,37.30
2024-01-07T00:10:19.567Z,36.83
2024-01-07T00:12:46.188Z,36.92
2024-01-07T00:15:12.723Z,35.47
2024-01-07T00:17:39.357Z,35.10
2024-01-07T00:20:07.109Z,34.13
2024-01-07T00:22:33.740Z,33.72
2024-01-07T00:25:00.438Z,34.38
2024-01-07T00:27:27.049Z,35.20
2024-01-07T00:29:53.676Z,33.13
2024-01-07T00:32:20.239Z,31.50
2024-01-07T00:34:46.876Z,31.05
2024-01-07T00:37:13.577Z,30.85
2024-01-07T00:39:40.219Z,30.98
2024-01-07T00:42:06.858Z,29.98
2024-01-07T00:44:33.422Z,29.67
2024-01-07T00:47:00.002Z,31.20
2024-01-07T00:49:27.196Z,29.55
2024-01-07T00:51:53.835Z,28.35
2024-01-07T00:54:20.400Z,27.83
2024-01-07T00:56:47.022Z,27.15
2024-01-07T00:59:13.580Z,27.85
2024-01-07T01:01:40.302Z,26.75
2024-01-07T01:04:07.070Z,25.60
2024-01-07T01:06:33.750Z,25.70
2024-01-07T01:09:00.319Z,25.20
2024-01-07T01:11:26.902Z,24.35
2024-01-07T01:13:53.958Z,25.17
2024-01-07T01:16:23.570Z,24.38
2024-01-07T01:18:53.025Z,23.73
2024-01-07T01:21:19.627Z,22.95
2024-01-07T01:23:47.966Z,22.55
2024-01-07T01:26:14.649Z,21.60
2024-01-07T01:28:41.188Z,22.05
2024-01-07T01:31:07.859Z,22.83
2024-01-07T01:33:34.620Z,21.95
2024-01-07T01:36:05.731Z,21.00
2024-01-07T01:38:32.306Z,21.30
2024-01-07T01:40:58.878Z,19.40
2024-01-07T01:43:26.855Z,19.13
2024-01-07T01:45:54.632Z,19.05
2024-01-07T01:48:21.529Z,19.55
2024-01-07T01:50:49.189Z,17.98
2024-01-07T01:53:18.600Z,18.92
2024-01-07T01:55:45.211Z,18.33
2024-01-07T01:58:13.982Z,16.70
2024-01-07T02:00:41.860Z,18.02
2024-01-07T02:03:08.601Z,17.02
2024-01-07T02:05:35.297Z,17.08
2024-01-07T02:08:02.102Z,16.38
2024-01-07T02:10:35.218Z,16.15
2024-01-07T02:13:01.958Z,15.90
2024-01-07T02:15:28.568Z,15.70
2024-01-07T02:17:55.485Z,15.15
2024-01-07T02:20:22.192Z,14.85
2024-01-07T02:22:49.210Z,14.23
2024-01-07T02:25:15.808Z,15.55
2024-01-07T02:27:42.421Z,14.25
2024-01-07T02:30:09.433Z,13.60
2024-01-07T02:32:37.208Z,13.82
2024-01-07T02:35:04.050Z,13.98
2024-01-07T02:37:30.931Z,13.57
2024-01-07T02:40:01.396Z,13.88
2024-01-07T02:42:29.136Z,12.95
2024-01-07T02:44:55.713Z,12.70
2024-01-07T02:47:22.334Z,13.40
2024-01-07T02:49:48.923Z,13.88
2024-01-07T02:52:15.605Z,12.25
2024-01-07T02:54:42.267Z,11.50
2024-01-07T02:57:08.863Z,11.32
2024-01-07T02:59:36.097Z,12.18
2024-01-07T03:02:02.753Z,11.57
2024-01-07T03:04:29.457Z,11.10
2024-01-07T03:06:56.027Z,11.10
2024-01-07T03:09:22.600Z,10.73
2024-01-07T03:11:49.111Z,10.25
2024-01-07T03:14:18.024Z,11.45
2024-01-07T03:16:44.624Z,10.15
2024-01-07T03:19:11.496Z,10.85
2024-01-07T03:21:38.174Z,10.45
2024-01-07T03:24:04.971Z,10.63
2024-01-07T03:26:34.471Z,9.75
2024-01-07T03:29:04.298Z,9.27
2024-01-07T03:31:31.187Z,9.77
2024-01-07T03:33:58.543Z,9.13
2024-01-07T03:36:25.260Z,8.88
2024-01-07T03:38:51.930Z,9.18
2024-01-07T03:41:19.648Z,8.38
2024-01-07T03:43:47.602Z,8.07
2024-01-07T03:46:14.793Z,8.30
2024-01-07T03:48:42.396Z,8.73
2024-01-07T03:51:09.173Z,8.45
2024-01-07T03:53:35.757Z,8.80
2024-01-07T03:56:02.421Z,7.68
2024-01-07T03:58:29.014Z,7.72
2024-01-07T04:00:55.665Z,8.20
2024-01-07T04:03:22.307Z,7.95
2024-01-07T04:05:51.317Z,7.88
2024-01-07T04:08:17.899Z,7.70
2024-01-07T04:10:44.503Z,7.22
2024-01-07T04:13:11.262Z,7.95
2024-01-07T04:15:38.027Z,7.20
2024-01-07T04:18:05.917Z,6.35
2024-01-07T04:20:32.706Z,7.30
2024-01-07T04:22:59.473Z,7.05
2024-01-07T04:25:26.138Z,6.55
2024-01-07T04:27:52.949Z,7.13
2024-01-07T04:30:19.749Z,6.60
2024-01-07T04:32:46.648Z,6.43
2024-01-07T04:35:13.410Z,6.40
2024-01-07T04:37:40.006Z,6.43
2024-01-07T04:40:07.254Z,6.80
2024-01-07T04:42:33.921Z,6.50
2024-01-07T04:45:00.717Z,5.93
2024-01-07T04:47:31.780Z,6.13
2024-01-07T04:49:59.122Z,6.00
2024-01-07T04:52:26.029Z,5.45
2024-01-07T04:54:53.957Z,5.43
2024-01-07T04:57:20.902Z,5.90
2024-01-07T04:59:49.797Z,5.47
2024-01-07T05:02:16.578Z,5.75
2024-01-07T05:04:43.582Z,5.03
2024-01-07T05:07:10.367Z,5.60
2024-01-07T05:09:36.957Z,5.13
2024-01-07T05:12:03.796Z,5.93
2024-01-07T05:14:30.354Z,5.20
2024-01-07T05:16:57.091Z,5.20
2024-01-07T05:19:24.255Z,5.30
2024-01-07T05:21:50.986Z,5.05
2024-01-07T05:24:17.558Z,4.93
2024-01-07T05:26:45.535Z,5.03
2024-01-07T05:29:13.217Z,4.47
2024-01-07T05:31:41.187Z,4.70
2024-01-07T05:34:08.226Z,4.72
2024-01-07T05:36:35.151Z,4.40
2024-01-07T05:39:01.764Z,4.97
2024-01-07T05:41:28.349Z,4.60
2024-01-07T05:43:55.081Z,5.28
2024-01-07T05:46:21.667Z,4.07
2024-01-07T05:48:49.841Z,4.70
2024-01-07T05:51:17.233Z,4.35
2024-01-07T05:53:45.072Z,4.50
2024-01-07T05:56:11.637Z,4.72
2024-01-07T05:58:38.245Z,4.40
2024-01-07T06:01:05.051Z,4.03
2024-01-07T06:03:31.991Z,4.40
2024-01-07T06:05:59.563Z,4.22
2024-01-07T06:08:29.628Z,3.70
2024-01-07T06:10:56.241Z,4.10
2024-01-07T06:13:22.822Z,4.53
2024-01-07T06:15:49.482Z,4.20
2024-01-07T06:18:16.219Z,3.90
2024-01-07T06:20:42.857Z,4.03
2024-01-07T06:23:09.544Z,4.13
2024-01-07T06:25:36.075Z,3.42
2024-01-07T06:28:02.721Z,3.72
2024-01-07T06:30:29.393Z,4.00
2024-01-07T06:32:56.799Z,3.47
2024-01-07T06:35:23.394Z,3.65
2024-01-07T06:37:50.331Z,3.10
2024-01-07T06:40:17.080Z,3.30
2024-01-07T06:42:45.091Z,3.15
2024-01-07T06:45:11.968Z,3.40
2024-01-07T06:47:39.086Z,3.70
2024-01-07T06:50:06.861Z,3.35
2024-01-07T06:52:33.729Z,3.30
2024-01-07T06:55:00.419Z,3.53
2024-01-07T06:57:27.024Z,3.17
2024-01-07T06:59:54.016Z,3.20
2024-01-07T07:02:22.643Z,3.47
2024-01-07T07:04:49.657Z,3.13
2024-01-07T07:07:16.464Z,3.65
2024-01-07T07:09:43.081Z,3.03
2024-01-07T07:12:09.874Z,3.40
2024-01-07T07:14:36.388Z,3.03
2024-01-07T07:17:02.966Z,3.20
2024-01-07T07:19:29.846Z,3.15
2024-01-07T07:21:56.446Z,3.63
2024-01-07T07:24:23.418Z,4.20
2024-01-07T07:26:49.962Z,4.60
2024-01-07T07:29:16.532Z,5.18
2024-01-07T07:31:43.113Z,5.60
2024-01-07T07:34:10.652Z,5.60
2024-01-07T07:36:37.306Z,6.50
2024-01-07T07:39:03.928Z,6.75
2024-01-07T07:41:30.461Z,7.05
2024-01-07T07:43:57.091Z,7.65
2024-01-07T07:46:23.735Z,8.25
2024-01-07T07:48:50.455Z,8.98
2024-01-07T07:51:17.080Z,9.68
2024-01-07T07:53:43.632Z,9.93
2024-01-07T07:56:10.168Z,9.50
2024-01-07T07:58:36.714Z,10.32
2024-01-07T08:01:03.536Z,10.80
2024-01-07T08:03:30.437Z,10.63
2024-01-07T08:05:57.105Z,11.02
2024-01-07T08:08:23.704Z,10.85
2024-01-07T08:10:50.297Z,11.30
2024-01-07T08:13:17.087Z,12.30
2024-01-07T08:15:43.879Z,12.65
2024-01-07T08:18:10.581Z,13.18
2024-01-07T08:20:37.179Z,13.52
2024-01-07T08:23:03.955Z,13.88
2024-01-07T08:25:30.632Z,14.13
2024-01-07T08:27:57.390Z,15.15
2024-01-07T08:30:24.755Z,14.48
2024-01-07T08:32:51.463Z,14.77
2024-01-07T08:35:20.245Z,14.35
2024-01-07T08:37:47.466Z,15.13
2024-01-07T08:40:14.967Z,15.75
2024-01-07T08:42:42.248Z,15.65
2024-01-07T08:45:09.280Z,15.85
2024-01-07T08:47:40.876Z,15.80
2024-01-07T08:52:36.617Z,15.90
2024-01-07T08:55:06.932Z,15.80
2024-01-07T08:57:34.232Z,18.60
2024-01-07T09:00:00.923Z,16.33
2024-01-07T09:02:27.622Z,17.20
2024-01-07T09:04:54.173Z,18.13
2024-01-07T09:07:20.730Z,19.15
2024-01-07T09:09:47.270Z,19.58
2024-01-07T09:12:13.887Z,18.85
2024-01-07T09:14:40.634Z,19.83
2024-01-07T09:17:07.214Z,19.38
2024-01-07T09:19:33.998Z,23.80
2024-01-07T09:22:00.777Z,27.80
2024-01-07T09:24:27.549Z,28.67
2024-01-07T09:26:54.184Z,28.38
2024-01-07T09:29:21.336Z,27.13
2024-01-07T09:31:48.068Z,27.38
2024-01-07T09:34:15.950Z,28.30
2024-01-07T09:36:42.656Z,28.92
2024-01-07T09:39:10.573Z,28.17
2024-01-07T09:41:37.348Z,28.65
2024-01-07T09:44:04.728Z,29.30
2024-01-07T09:46:33.301Z,30.88
2024-01-07T09:49:00.006Z,30.88
2024-01-07T09:51:30.226Z,31.95
2024-01-07T09:54:03.391Z,31.33
2024-01-07T09:56:40.482Z,31.60
2024-01-07T09:59:08.027Z,32.50
2024-01-07T10:01:36.851Z,31.65
2024-01-07T10:04:03.776Z,32.92
2024-01-07T10:06:30.431Z,33.92
2024-01-07T10:08:56.990Z,35.00
2024-01-07T10:11:23.888Z,34.83
2024-01-07T10:13:52.402Z,36.38
2024-01-07T10:16:19.101Z,32.20
2024-01-07T10:18:45.986Z,34.70
2024-01-07T10:21:12.673Z,36.53
2024-01-07T10:23:39.270Z,36.30
2024-01-07T10:26:12.234Z,36.15
2024-01-07T10:28:46.710Z,38.83
2024-01-07T10:31:13.550Z,41.10
2024-01-07T10:33:41.843Z,39.35
2024-01-07T10:36:08.757Z,40.03
2024-01-07T10:38:36.398Z,42.47
2024-01-07T10:41:06.028Z,42.80
2024-01-07T10:43:36.985Z,40.85
2024-01-07T10:46:04.656Z,41.72
2024-01-07T10:48:36.036Z,41.88
2024-01-07T10:51:03.814Z,40.55
2024-01-07T10:53:38.187Z,41.40
2024-01-07T10:56:06.086Z,41.80
2024-01-07T10:58:35.240Z,42.75
2024-01-07T11:01:05.019Z,44.35
2024-01-07T11:03:41.976Z,43.63
2024-01-07T11:06:21.323Z,42.88
2024-01-07T11:08:57.161Z,40.22
2024-01-07T11:11:28.579Z,41.13
2024-01-07T11:13:57.936Z,41.25
2024-01-07T11:16:46.168Z,40.40
2024-01-07T11:19:16.203Z,38.70
2024-01-07T11:21:42.934Z,38.78
2024-01-07T11:24:09.513Z,40.88
2024-01-07T11:26:36.074Z,38.42
2024-01-07T11:29:02.711Z,36.08
2024-01-07T11:31:50.395Z,36.70
2024-01-07T11:34:47.665Z,35.88
2024-01-07T11:37:14.883Z,34.33
2024-01-07T11:39:46.121Z,34.15
2024-01-07T11:42:13.500Z,33.28
2024-01-07T11:44:49.844Z,32.55
2024-01-07T11:47:20.380Z,31.85
2024-01-07T11:49:47.350Z,31.42
2024-01-07T11:52:14.626Z,33.20
2024-01-07T11:54:41.664Z,32.30
2024-01-07T11:57:09.172Z,34.50
2024-01-07T11:59:35.973Z,31.95
2024-01-07T12:02:05.513Z,29.65
2024-01-07T12:04:32.866Z,28.33
2024-01-07T12:06:59.780Z,31.38
2024-01-07T12:09:26.869Z,27.83
2024-01-07T12:11:54.090Z,30.50
2024-01-07T12:14:21.245Z,29.52
2024-01-07T12:16:47.958Z,27.33
2024-01-07T12:19:14.785Z,30.00
2024-01-07T12:21:41.551Z,29.15
2024-01-07T12:24:08.543Z,29.90
2024-01-07T12:26:35.161Z,29.77
2024-01-07T12:29:04.972Z,28.70
2024-01-07T12:31:33.087Z,26.88
2024-01-07T12:34:00.113Z,25.67
2024-01-07T12:36:27.383Z,25.60
2024-01-07T12:38:57.031Z,25.98
2024-01-07T12:41:26.874Z,22.08
2024-01-07T12:43:53.594Z,23.25
2024-01-07T12:46:20.347Z,23.10
2024-01-07T12:48:47.270Z,25.20
2024-01-07T12:51:14.132Z,25.20
2024-01-07T12:53:40.729Z,25.98
2024-01-07T12:56:07.589Z,24.27
2024-01-07T12:58:34.252Z,23.00
2024-01-07T13:01:01.133Z,21.63
2024-01-07T13:03:28.258Z,22.85
2024-01-07T13:05:55.028Z,22.10
2024-01-07T13:08:23.676Z,22.73
2024-01-07T13:10:50.691Z,22.20
2024-01-07T13:13:17.440Z,21.92
2024-01-07T13:15:44.671Z,21.98
2024-01-07T13:18:13.425Z,21.30
2024-01-07T13:20:43.391Z,20.63
2024-01-07T13:23:10.065Z,20.50
2024-01-07T13:25:36.677Z,19.70
2024-01-07T13:28:03.968Z,21.13
2024-01-07T13:30:30.733Z,20.40
2024-01-07T13:33:01.677Z,20.20
2024-01-07T13:35:29.683Z,20.42
2024-01-07T13:37:56.249Z,19.80
2024-01-07T13:40:22.881Z,18.67
2024-01-07T13:42:52.286Z,17.42
2024-01-07T13:45:21.766Z,18.02
2024-01-07T13:47:48.635Z,18.55
2024-01-07T13:50:15.546Z,17.23
2024-01-07T13:52:42.207Z,16.88
2024-01-07T13:55:12.369Z,16.75
2024-01-07T13:57:39.845Z,16.63
2024-01-07T14:00:10.145Z,15.63
2024-01-07T14:02:41.638Z,15.20
2024-01-07T14:05:10.072Z,14.55
2024-01-07T14:07:36.933Z,13.82
2024-01-07T14:10:04.823Z,14.00
2024-01-07T14:12:32.205Z,13.43
2024-01-07T14:15:00.070Z,13.55
2024-01-07T14:17:27.224Z,13.30
2024-01-07T14:19:54.308Z,12.73
2024-01-07T14:22:22.247Z,12.80
2024-01-07T14:24:49.786Z,11.77
2024-01-07T14:27:17.058Z,12.00
2024-01-07T14:29:44.504Z,12.05
2024-01-07T14:32:11.913Z,11.50
2024-01-07T14:34:42.785Z,11.80
2024-01-07T14:37:13.197Z,10.73
2024-01-07T14:39:40.420Z,11.48
2024-01-07T14:42:07.150Z,10.82
2024-01-07T14:44:41.162Z,10.68
2024-01-07T14:47:15.862Z,10.38
2024-01-07T14:49:42.833Z,10.13
2024-01-07T14:52:09.481Z,10.13
2024-01-07T14:54:38.285Z,10.20
2024-01-07T14:57:05.625Z,10.52
2024-01-07T14:59:32.289Z,10.10
2024-01-07T15:02:00.330Z,11.68
2024-01-07T15:04:27.294Z,11.43
2024-01-07T15:06:54.016Z,11.48
2024-01-07T15:09:22.403Z,12.00
2024-01-07T15:11:50.004Z,11.27
2024-01-07T15:14:16.762Z,11.90
2024-01-07T15:16:43.788Z,12.23
2024-01-07T15:19:10.482Z,11.02
2024-01-07T15:21:37.185Z,12.77
2024-01-07T15:24:04.014Z,12.73
2024-01-07T15:26:31.112Z,13.50
2024-01-07T15:28:59.017Z,13.55
2024-01-07T15:31:25.700Z,13.25
2024-01-07T15:33:52.388Z,13.20
2024-01-07T15:36:19.208Z,13.60
2024-01-07T15:38:45.781Z,13.70
2024-01-07T15:41:12.420Z,15.10
2024-01-07T15:43:39.166Z,16.05
2024-01-07T15:46:06.121Z,15.07
2024-01-07T15:48:32.803Z,16.00
2024-01-07T15:51:02.609Z,15.82
2024-01-07T15:53:33.101Z,17.02
2024-01-07T15:56:04.182Z,17.58
2024-01-07T15:58:34.697Z,18.52
2024-01-07T16:01:04.574Z,17.20
2024-01-07T16:03:32.430Z,19.23
2024-01-07T16:06:00.384Z,17.10
2024-01-07T16:08:29.280Z,18.27
2024-01-07T16:10:56.442Z,20.17
2024-01-07T16:13:23.115Z,20.73
2024-01-07T16:15:49.722Z,20.85
2024-01-07T16:18:17.631Z,20.67
2024-01-07T16:20:44.989Z,20.83
2024-01-07T16:23:12.319Z,19.90
2024-01-07T16:25:39.217Z,21.77
2024-01-07T16:28:08.097Z,22.63
2024-01-07T16:30:35.464Z,22.40
2024-01-07T16:33:03.264Z,23.58
2024-01-07T16:35:30.932Z,23.10
2024-01-07T16:37:57.546Z,23.23
2024-01-07T16:40:24.192Z,22.73
2024-01-07T16:42:50.993Z,21.55
2024-01-07T16:45:17.681Z,23.02
2024-01-07T16:47:44.262Z,22.65
2024-01-07T16:50:21.546Z,22.23
2024-01-07T16:52:51.305Z,21.92
2024-01-07T16:55:17.966Z,23.60
2024-01-07T16:57:44.709Z,23.90
2024-01-07T17:00:11.800Z,24.45
2024-01-07T17:02:38.390Z,24.92
2024-01-07T17:05:05.554Z,26.00
2024-01-07T17:07:32.260Z,26.88
2024-01-07T17:09:58.830Z,28.70
2024-01-07T17:12:25.402Z,27.83
2024-01-07T17:14:53.276Z,27.73
2024-01-07T17:17:25.679Z,29.00
2024-01-07T17:19:52.407Z,59.22
2024-01-07T17:22:19.063Z,59.05
2024-01-07T17:24:45.594Z,58.85
2024-01-07T17:27:12.214Z,56.58
2024-01-07T17:29:38.806Z,56.00
2024-01-07T17:32:05.949Z,53.47
2024-01-07T17:34:32.651Z,52.83
2024-01-07T17:37:00.430Z,48.30
2024-01-07T17:39:27.007Z,49.75
2024-01-07T17:41:53.597Z,47.47
2024-01-07T17:44:20.168Z,46.28
2024-01-07T17:46:46.787Z,44.58
2024-01-07T17:49:13.501Z,44.47
2024-01-07T17:51:44.893Z,42.58
2024-01-07T17:54:13.024Z,41.92
2024-01-07T17:56:39.650Z,39.58
2024-01-07T17:59:08.277Z,40.28
2024-01-07T18:01:34.896Z,38.55
2024-01-07T18:04:01.550Z,41.53
2024-01-07T18:06:28.174Z,39.45
2024-01-07T18:08:54.891Z,36.70
2024-01-07T18:11:21.722Z,36.05
2024-01-07T18:13:49.068Z,35.25
2024-01-07T18:16:15.797Z,36.13
2024-01-07T18:18:42.700Z,36.95
2024-01-07T18:21:09.825Z,37.92
2024-01-07T18:23:36.397Z,39.97
2024-01-07T18:26:03.005Z,38.97
2024-01-07T18:28:29.635Z,41.08
2024-01-07T18:30:56.354Z,42.33
2024-01-07T18:33:24.607Z,45.63
2024-01-07T18:35:51.535Z,40.58
2024-01-07T18:38:18.300Z,41.20
2024-01-07T18:40:45.047Z,41.50
2024-01-07T18:43:11.795Z,40.70
2024-01-07T18:45:38.511Z,41.92
2024-01-07T18:48:06.969Z,42.65
2024-01-07T18:50:33.945Z,40.92
2024-01-07T18:53:01.096Z,39.60
2024-01-07T18:55:27.840Z,38.15
2024-01-07T18:57:54.429Z,37.97
2024-01-07T19:00:21.115Z,38.40
2024-01-07T19:02:47.715Z,36.30
2024-01-07T19:05:14.574Z,35.83
2024-01-07T19:07:42.249Z,36.97
2024-01-07T19:10:10.374Z,34.42
2024-01-07T19:12:37.125Z,33.65
2024-01-07T19:15:04.464Z,33.58
2024-01-07T19:17:31.381Z,34.08
2024-01-07T19:19:58.445Z,31.75
2024-01-07T19:22:25.056Z,34.13
2024-01-07T19:24:51.670Z,30.42
2024-01-07T19:27:18.499Z,30.60
2024-01-07T19:29:45.135Z,28.55
2024-01-07T19:32:11.767Z,28.02
2024-01-07T19:34:39.152Z,28.17
2024-01-07T19:37:05.786Z,26.42
2024-01-07T19:39:34.652Z,26.42
2024-01-07T19:42:01.988Z,24.63
2024-01-07T19:44:28.857Z,24.70
2024-01-07T19:46:55.887Z,23.58
2024-01-07T19:49:22.519Z,23.45
2024-01-07T19:51:51.181Z,23.73
2024-01-07T19:54:20.287Z,21.80
2024-01-07T19:56:47.012Z,23.33
2024-01-07T19:59:13.767Z,21.38
2024-01-07T20:01:40.366Z,20.38
2024-01-07T20:04:06.991Z,20.52
2024-01-07T20:06:33.607Z,19.90
2024-01-07T20:09:00.203Z,19.98
2024-01-07T20:11:27.029Z,19.15
2024-01-07T20:13:53.909Z,19.20
2024-01-07T20:16:21.459Z,17.38
2024-01-07T20:18:52.835Z,16.67
2024-01-07T20:21:24.319Z,17.85
2024-01-07T20:23:56.306Z,17.77
2024-01-07T20:26:23.534Z,21.23
2024-01-07T20:28:54.639Z,22.98
2024-01-07T20:31:22.121Z,25.25
2024-01-07T20:33:49.829Z,27.65
2024-01-07T20:36:16.736Z,29.15
2024-01-07T20:38:44.391Z,32.63
2024-01-07T20:41:12.480Z,36.35
2024-01-07T20:43:39.451Z,38.08
2024-01-07T20:46:07.056Z,38.42
2024-01-07T20:48:38.754Z,39.20
2024-01-07T20:51:08.699Z,40.85
2024-01-07T20:53:36.537Z,43.13
2024-01-07T20:56:03.508Z,40.97
2024-01-07T20:58:31.204Z,41.70
2024-01-07T21:01:00.097Z,41.00
2024-01-07T21:03:27.181Z,40.53
2024-01-07T21:05:54.468Z,40.13
2024-01-07T21:08:21.599Z,40.42
2024-01-07T21:10:48.642Z,41.28
2024-01-07T21:13:16.239Z,39.83
2024-01-07T21:15:42.906Z,40.55
2024-01-07T21:18:09.749Z,38.53
2024-01-07T21:20:36.794Z,36.80
2024-01-07T21:23:04.786Z,37.83
2024-01-07T21:25:33.340Z,35.13
2024-01-07T21:28:00.001Z,35.78
2024-01-07T21:30:27.049Z,33.42
2024-01-07T21:32:53.890Z,33.10
2024-01-07T21:35:20.624Z,33.15
2024-01-07T21:37:47.412Z,31.67
2024-01-07T21:40:23.642Z,31.92
2024-01-07T21:42:51.790Z,33.13
2024-01-07T21:45:19.905Z,30.88
2024-01-07T21:47:46.595Z,32.50
2024-01-07T21:50:13.875Z,29.05
2024-01-07T21:52:41.119Z,29.58
2024-01-07T21:55:08.208Z,30.15
2024-01-07T21:57:34.862Z,29.25
2024-01-07T22:00:01.449Z,28.98
2024-01-07T22:02:28.203Z,29.75
2024-01-07T22:04:55.114Z,28.63
2024-01-07T22:07:22.155Z,27.88
2024-01-07T22:09:49.173Z,28.00
2024-01-07T22:12:16.027Z,27.33
2024-01-07T22:14:42.881Z,27.30
2024-01-07T22:17:10.178Z,27.98
2024-01-07T22:19:38.839Z,27.23
2024-01-07T22:22:06.070Z,26.63
2024-01-07T22:24:32.668Z,27.08
2024-01-07T22:26:59.281Z,26.15
2024-01-07T22:29:26.084Z,24.98
2024-01-07T22:31:52.963Z,26.02
2024-01-07T22:34:19.711Z,25.35
2024-01-07T22:36:46.435Z,25.55
2024-01-07T22:39:13.239Z,24.13
2024-01-07T22:41:43.896Z,23.15
2024-01-07T22:44:11.687Z,23.02
2024-01-07T22:46:45.828Z,23.13
2024-01-07T22:49:13.983Z,22.35
2024-01-07T22:51:44.928Z,23.80
2024-01-07T22:54:11.731Z,22.02
2024-01-07T22:56:46.191Z,21.38
2024-01-07T22:59:14.883Z,21.13
2024-01-07T23:01:41.968Z,20.50
2024-01-07T23:04:09.261Z,20.35
2024-01-07T23:06:39.398Z,20.40
2024-01-07T23:09:07.004Z,20.67
2024-01-07T23:11:34.108Z,20.77
2024-01-07T23:14:01.030Z,18.92
2024-01-07T23:16:27.731Z,18.40
2024-01-07T23:18:54.519Z,17.95
2024-01-07T23:21:21.271Z,19.13
2024-01-07T23:23:48.063Z,17.38
2024-01-07T23:26:14.847Z,18.08
2024-01-07T23:28:41.503Z,18.83
2024-01-07T23:31:11.177Z,17.35
2024-01-07T23:33:38.195Z,17.02
2024-01-07T23:36:08.059Z,16.20
2024-01-07T23:38:36.468Z,17.75
2024-01-07T23:41:04.815Z,15.95
2024-01-07T23:43:32.159Z,16.67
2024-01-07T23:45:58.736Z,15.45
2024-01-07T23:48:26.477Z,15.85
2024-01-07T23:50:53.204Z,16.05
2024-01-07T23:53:19.816Z,15.07
2024-01-07T23:55:46.468Z,15.38
2024-01-07T23:58:13.082Z,15.57
